createdAt,value
2022-10-19T00:00:51.676Z,28.52
2022-10-19T00:03:20.852Z,36.95
2022-10-19T00:05:49.866Z,24.80
2022-10-19T00:08:16.545Z,32.20
2022-10-19T00:10:43.236Z,27.73
2022-10-19T00:13:10.014Z,24.60
2022-10-19T00:15:42.633Z,23.00
2022-10-19T00:18:09.486Z,21.92
2022-10-19T00:20:37.021Z,21.35
2022-10-19T00:23:04.322Z,22.33
2022-10-19T00:25:31.037Z,22.75
2022-10-19T00:27:57.714Z,26.35
2022-10-19T00:30:24.460Z,28.50
2022-10-19T00:32:51.213Z,27.30
2022-10-19T00:35:18.003Z,26.02
2022-10-19T00:37:44.780Z,25.08
2022-10-19T00:40:12.043Z,31.23
2022-10-19T00:42:38.837Z,37.15
2022-10-19T00:45:12.967Z,33.03
2022-10-19T00:47:41.291Z,35.10
2022-10-19T00:50:09.073Z,30.80
2022-10-19T00:52:36.161Z,34.45
2022-10-19T00:55:03.856Z,27.55
2022-10-19T00:57:32.622Z,24.83
2022-10-19T01:00:01.363Z,25.42
2022-10-19T01:02:28.136Z,21.95
2022-10-19T01:04:55.187Z,30.95
2022-10-19T01:07:21.995Z,28.33
2022-10-19T01:09:49.035Z,30.70
2022-10-19T01:12:39.953Z,23.95
2022-10-19T01:15:35.737Z,29.88
2022-10-19T01:18:23.838Z,28.73
2022-10-19T01:21:19.236Z,28.35
2022-10-19T01:24:07.428Z,29.55
2022-10-19T01:26:37.060Z,32.60
2022-10-19T01:29:12.934Z,24.67
2022-10-19T01:32:06.426Z,23.98
2022-10-19T01:34:50.703Z,26.83
2022-10-19T01:37:28.382Z,28.33
2022-10-19T01:40:20.444Z,20.98
2022-10-19T01:43:04.442Z,21.80
2022-10-19T01:45:41.970Z,25.30
2022-10-19T01:48:16.133Z,25.38
2022-10-19T01:51:05.305Z,20.60
2022-10-19T01:53:37.874Z,27.33
2022-10-19T01:56:06.430Z,20.83
2022-10-19T01:58:36.150Z,21.52
2022-10-19T02:01:06.973Z,23.15
2022-10-19T02:03:36.877Z,24.23
2022-10-19T02:08:40.915Z,22.40
2022-10-19T02:11:08.244Z,22.50
2022-10-19T02:13:36.561Z,29.98
2022-10-19T02:16:07.970Z,24.58
2022-10-19T02:18:40.789Z,22.75
2022-10-19T02:21:09.700Z,20.10
2022-10-19T02:23:36.879Z,27.47
2022-10-19T02:26:04.397Z,22.63
2022-10-19T02:28:31.915Z,20.50
2022-10-19T02:31:00.018Z,27.17
2022-10-19T02:33:27.893Z,24.13
2022-10-19T02:35:55.195Z,29.35
2022-10-19T02:38:24.125Z,21.40
2022-10-19T02:41:11.808Z,24.53
2022-10-19T02:43:42.256Z,19.48
2022-10-19T02:49:12.337Z,24.33
2022-10-19T02:51:55.152Z,23.75
2022-10-19T02:54:23.621Z,21.55
2022-10-19T02:56:50.972Z,17.83
2022-10-19T02:59:22.454Z,20.77
2022-10-19T03:01:49.799Z,20.20
2022-10-19T03:04:17.189Z,21.85
2022-10-19T03:06:44.576Z,23.65
2022-10-19T03:09:11.816Z,19.75
2022-10-19T03:11:39.143Z,20.95
2022-10-19T03:14:06.058Z,18.00
2022-10-19T03:16:32.908Z,19.30
2022-10-19T03:18:59.592Z,18.67
2022-10-19T03:21:26.331Z,23.63
2022-10-19T03:23:53.115Z,19.38
2022-10-19T03:26:20.103Z,18.00
2022-10-19T03:28:46.923Z,16.27
2022-10-19T03:31:13.668Z,14.07
2022-10-19T03:33:40.626Z,12.50
2022-10-19T03:36:34.576Z,20.50
2022-10-19T03:39:04.761Z,20.20
2022-10-19T03:41:34.365Z,19.10
2022-10-19T03:44:01.546Z,13.77
2022-10-19T03:46:28.492Z,12.25
2022-10-19T03:48:55.513Z,18.50
2022-10-19T03:51:27.633Z,15.15
2022-10-19T03:53:57.850Z,14.48
2022-10-19T03:56:26.662Z,10.73
2022-10-19T03:58:55.256Z,10.02
2022-10-19T04:01:28.605Z,15.95
2022-10-19T04:04:00.951Z,11.38
2022-10-19T04:06:33.117Z,13.25
2022-10-19T04:09:00.284Z,11.10
2022-10-19T04:11:29.784Z,12.20
2022-10-19T04:13:58.456Z,15.18
2022-10-19T04:16:27.557Z,14.98
2022-10-19T04:18:54.653Z,17.75
2022-10-19T04:21:27.254Z,10.50
2022-10-19T04:23:58.551Z,13.00
2022-10-19T04:26:25.330Z,9.55
2022-10-19T04:28:52.318Z,8.30
2022-10-19T04:31:19.220Z,14.60
2022-10-19T04:36:20.676Z,6.43
2022-10-19T04:38:47.781Z,8.65
2022-10-19T04:41:16.986Z,8.85
2022-10-19T04:43:47.191Z,13.10
2022-10-19T04:46:18.924Z,10.00
2022-10-19T04:48:47.593Z,7.68
2022-10-19T04:51:15.346Z,9.80
2022-10-19T04:53:43.011Z,10.18
2022-10-19T04:56:13.441Z,9.30
2022-10-19T04:58:40.226Z,8.93
2022-10-19T05:01:19.216Z,12.18
2022-10-19T05:03:46.662Z,11.70
2022-10-19T05:06:15.527Z,8.82
2022-10-19T05:08:42.763Z,10.00
2022-10-19T05:11:15.028Z,8.52
2022-10-19T05:13:43.455Z,6.57
2022-10-19T05:16:16.802Z,8.93
2022-10-19T05:18:47.908Z,6.65
2022-10-19T05:21:15.484Z,8.05
2022-10-19T05:23:42.609Z,12.35
2022-10-19T05:26:17.710Z,7.90
2022-10-19T05:28:51.458Z,6.35
2022-10-19T05:31:20.685Z,7.97
2022-10-19T05:33:48.133Z,6.97
2022-10-19T05:36:19.394Z,11.05
2022-10-19T05:38:47.675Z,9.93
2022-10-19T05:41:15.186Z,10.25
2022-10-19T05:43:42.516Z,16.45
2022-10-19T05:46:11.644Z,18.55
2022-10-19T05:48:39.555Z,23.02
2022-10-19T05:51:08.056Z,18.83
2022-10-19T05:53:35.636Z,11.30
2022-10-19T05:56:05.768Z,14.30
2022-10-19T05:58:32.904Z,12.60
2022-10-19T06:01:01.440Z,12.63
2022-10-19T06:03:29.142Z,14.10
2022-10-19T06:05:56.622Z,10.35
2022-10-19T06:08:24.742Z,11.98
2022-10-19T06:10:51.865Z,12.40
2022-10-19T06:13:19.725Z,9.48
2022-10-19T06:15:50.609Z,9.80
2022-10-19T06:18:17.343Z,9.40
2022-10-19T06:20:44.111Z,11.23
2022-10-19T06:23:11.082Z,10.60
2022-10-19T06:25:37.812Z,9.48
2022-10-19T06:28:05.834Z,13.95
2022-10-19T06:30:32.696Z,12.85
2022-10-19T06:32:59.957Z,8.20
2022-10-19T06:35:26.905Z,8.27
2022-10-19T06:37:56.587Z,10.10
2022-10-19T06:40:24.533Z,10.55
2022-10-19T06:42:51.325Z,9.32
2022-10-19T06:45:18.452Z,8.13
2022-10-19T06:47:45.186Z,7.07
2022-10-19T06:50:11.981Z,8.55
2022-10-19T06:52:40.898Z,8.80
2022-10-19T06:55:08.177Z,6.53
2022-10-19T06:57:35.592Z,8.73
2022-10-19T07:00:02.781Z,9.73
2022-10-19T07:02:29.485Z,10.55
2022-10-19T07:04:56.261Z,9.45
2022-10-19T07:07:23.104Z,7.05
2022-10-19T07:09:49.882Z,10.07
2022-10-19T07:12:17.412Z,6.80
2022-10-19T07:14:44.346Z,7.72
2022-10-19T07:17:12.271Z,13.63
2022-10-19T07:19:39.132Z,6.88
2022-10-19T07:22:06.111Z,8.98
2022-10-19T07:24:34.219Z,26.73
2022-10-19T07:27:01.169Z,13.57
2022-10-19T07:29:27.871Z,10.63
2022-10-19T07:31:54.613Z,12.00
2022-10-19T07:34:24.198Z,9.43
2022-10-19T07:36:55.192Z,8.27
2022-10-19T07:39:21.992Z,9.75
2022-10-19T07:41:48.733Z,9.60
2022-10-19T07:44:16.125Z,12.52
2022-10-19T07:46:44.131Z,10.02
2022-10-19T07:49:14.438Z,6.75
2022-10-19T07:51:41.223Z,13.27
2022-10-19T07:54:08.206Z,12.57
2022-10-19T07:56:35.533Z,15.80
2022-10-19T07:59:02.927Z,20.00
2022-10-19T08:01:34.973Z,11.10
2022-10-19T08:06:49.633Z,9.48
2022-10-19T08:09:40.197Z,7.07
2022-10-19T08:12:05.427Z,8.27
2022-10-19T08:14:32.804Z,7.25
2022-10-19T08:17:00.721Z,8.48
2022-10-19T08:19:27.477Z,8.35
2022-10-19T08:21:54.373Z,12.73
2022-10-19T08:24:21.184Z,9.85
2022-10-19T08:26:51.213Z,10.60
2022-10-19T08:29:21.182Z,9.10
2022-10-19T08:31:49.319Z,7.68
2022-10-19T08:34:16.403Z,9.38
2022-10-19T08:36:44.020Z,8.13
2022-10-19T08:39:12.881Z,8.30
2022-10-19T08:42:04.496Z,10.67
2022-10-19T08:44:51.531Z,7.82
2022-10-19T08:47:38.518Z,9.25
2022-10-19T08:50:38.089Z,8.60
2022-10-19T08:53:08.143Z,10.57
2022-10-19T08:56:08.906Z,10.98
2022-10-19T08:59:02.918Z,6.85
2022-10-19T09:01:54.917Z,7.65
2022-10-19T09:04:27.723Z,7.07
2022-10-19T09:07:16.076Z,6.90
2022-10-19T09:12:24.861Z,6.88
2022-10-19T09:15:17.985Z,8.50
2022-10-19T09:17:44.822Z,10.60
2022-10-19T09:20:20.949Z,9.05
2022-10-19T09:22:59.988Z,11.90
2022-10-19T09:25:29.573Z,7.63
2022-10-19T09:28:39.925Z,8.45
2022-10-19T09:31:15.312Z,12.38
2022-10-19T09:33:43.991Z,11.13
2022-10-19T09:36:22.199Z,7.85
2022-10-19T09:38:50.492Z,8.38
2022-10-19T09:41:20.831Z,8.70
2022-10-19T09:43:53.900Z,10.50
2022-10-19T09:46:39.460Z,10.40
2022-10-19T09:49:06.720Z,10.13
2022-10-19T09:51:45.757Z,9.88
2022-10-19T09:54:45.191Z,13.65
2022-10-19T09:57:21.302Z,6.63
2022-10-19T09:59:52.547Z,9.60
2022-10-19T10:02:22.493Z,7.60
2022-10-19T10:05:16.382Z,9.52
2022-10-19T10:07:43.378Z,9.75
2022-10-19T10:10:38.249Z,10.73
2022-10-19T10:13:06.245Z,10.52
2022-10-19T10:15:44.162Z,9.80
2022-10-19T10:18:15.289Z,13.27
2022-10-19T10:21:12.753Z,6.32
2022-10-19T10:23:39.689Z,8.68
2022-10-19T10:26:17.135Z,8.73
2022-10-19T10:28:49.735Z,7.57
2022-10-19T10:31:22.732Z,5.57
2022-10-19T10:34:16.297Z,6.80
2022-10-19T10:36:53.851Z,6.55
2022-10-19T10:39:20.812Z,8.80
2022-10-19T10:41:49.153Z,7.38
2022-10-19T10:44:22.631Z,7.70
2022-10-19T10:46:56.011Z,5.68
2022-10-19T10:49:27.063Z,5.80
2022-10-19T10:52:27.958Z,7.55
2022-10-19T10:55:17.392Z,7.75
2022-10-19T10:57:48.811Z,9.13
2022-10-19T11:00:21.082Z,8.18
2022-10-19T11:02:47.848Z,8.13
2022-10-19T11:05:23.298Z,11.10
2022-10-19T11:08:12.947Z,9.05
2022-10-19T11:10:46.976Z,7.30
2022-10-19T11:13:24.351Z,9.63
2022-10-19T11:16:07.014Z,10.23
2022-10-19T11:18:55.060Z,8.43
2022-10-19T11:21:35.414Z,6.43
2022-10-19T11:24:11.371Z,7.43
2022-10-19T11:26:56.552Z,9.52
2022-10-19T11:29:29.212Z,7.13
2022-10-19T11:31:57.346Z,8.35
2022-10-19T11:34:30.110Z,9.52
2022-10-19T11:37:23.551Z,11.98
2022-10-19T11:40:05.893Z,9.35
2022-10-19T11:42:53.556Z,6.45
2022-10-19T11:45:54.072Z,8.32
2022-10-19T11:48:31.804Z,7.53
2022-10-19T11:51:22.159Z,6.25
2022-10-19T11:54:26.074Z,5.43
2022-10-19T11:57:31.756Z,7.57
2022-10-19T12:00:15.276Z,4.25
2022-10-19T12:02:59.369Z,8.00
2022-10-19T12:05:43.253Z,7.10
2022-10-19T12:08:29.520Z,6.95
2022-10-19T12:10:59.632Z,5.68
2022-10-19T12:13:42.680Z,5.50
2022-10-19T12:16:12.497Z,5.22
2022-10-19T12:18:55.737Z,6.38
2022-10-19T12:21:30.165Z,3.97
2022-10-19T12:23:58.920Z,4.45
2022-10-19T12:26:29.662Z,2.93
2022-10-19T12:29:00.703Z,3.40
2022-10-19T12:31:29.696Z,10.77
2022-10-19T12:34:08.242Z,4.18
2022-10-19T12:37:06.245Z,3.50
2022-10-19T12:39:54.067Z,4.05
2022-10-19T12:42:31.713Z,6.38
2022-10-19T12:45:41.836Z,3.20
2022-10-19T12:48:08.455Z,2.72
2022-10-19T12:51:02.486Z,7.80
2022-10-19T12:53:41.147Z,4.20
2022-10-19T12:56:24.195Z,5.57
2022-10-19T12:58:51.221Z,5.28
2022-10-19T13:01:28.380Z,3.95
2022-10-19T13:04:15.057Z,3.05
2022-10-19T13:06:47.058Z,3.65
2022-10-19T13:09:37.282Z,8.57
2022-10-19T13:12:19.847Z,5.53
2022-10-19T13:15:01.370Z,3.83
2022-10-19T13:17:34.394Z,6.63
2022-10-19T13:20:16.403Z,4.13
2022-10-19T13:22:47.402Z,5.57
2022-10-19T13:25:17.385Z,5.70
2022-10-19T13:27:45.267Z,4.95
2022-10-19T13:30:36.941Z,6.30
2022-10-19T13:33:35.134Z,6.82
2022-10-19T13:36:02.692Z,7.47
2022-10-19T13:38:48.117Z,7.72
2022-10-19T13:41:27.865Z,9.82
2022-10-19T13:46:45.260Z,7.97
2022-10-19T13:49:15.062Z,6.90
2022-10-19T13:52:12.412Z,6.50
2022-10-19T13:54:48.006Z,6.93
2022-10-19T13:57:53.149Z,7.30
2022-10-19T14:00:45.236Z,8.10
2022-10-19T14:03:36.695Z,7.07
2022-10-19T14:06:03.453Z,6.38
2022-10-19T14:08:33.036Z,7.03
2022-10-19T14:13:29.631Z,6.50
2022-10-19T14:15:58.755Z,6.63
2022-10-19T14:18:27.583Z,6.50
2022-10-19T14:21:03.653Z,6.18
2022-10-19T14:23:32.972Z,6.20
2022-10-19T14:26:05.566Z,7.03
2022-10-19T14:28:33.716Z,6.57
2022-10-19T14:31:05.933Z,5.35
2022-10-19T14:33:35.212Z,6.43
2022-10-19T14:36:02.598Z,4.47
2022-10-19T14:38:35.956Z,6.57
2022-10-19T14:41:05.192Z,8.77
2022-10-19T14:43:34.580Z,6.82
2022-10-19T14:46:07.466Z,5.60
2022-10-19T14:48:49.191Z,3.63
2022-10-19T14:51:16.134Z,3.88
2022-10-19T14:53:46.382Z,4.18
2022-10-19T14:56:26.122Z,3.72
2022-10-19T14:59:34.712Z,5.13
2022-10-19T15:02:11.204Z,5.15
2022-10-19T15:04:39.253Z,4.43
2022-10-19T15:07:20.463Z,4.97
2022-10-19T15:09:56.209Z,6.85
2022-10-19T15:12:30.673Z,5.43
2022-10-19T15:14:57.873Z,5.22
2022-10-19T15:17:31.015Z,6.90
2022-10-19T15:20:02.773Z,11.90
2022-10-19T15:22:40.523Z,5.60
2022-10-19T15:25:07.173Z,5.03
2022-10-19T15:27:36.496Z,15.73
2022-10-19T15:30:24.492Z,19.58
2022-10-19T15:33:14.828Z,11.80
2022-10-19T15:35:44.762Z,5.28
2022-10-19T15:38:15.024Z,4.57
2022-10-19T15:40:43.956Z,11.30
2022-10-19T15:43:35.641Z,32.33
2022-10-19T15:46:20.318Z,21.88
2022-10-19T15:48:51.190Z,30.85
2022-10-19T15:51:25.821Z,22.98
2022-10-19T15:53:58.484Z,18.38
2022-10-19T15:56:27.590Z,11.80
2022-10-19T15:58:56.317Z,9.90
2022-10-19T16:01:26.371Z,10.75
2022-10-19T16:03:59.925Z,9.32
2022-10-19T16:06:29.426Z,7.35
2022-10-19T16:08:56.597Z,7.55
2022-10-19T16:11:29.234Z,14.95
2022-10-19T16:14:05.066Z,11.45
2022-10-19T16:16:34.424Z,9.13
2022-10-19T16:19:01.205Z,13.52
2022-10-19T16:21:31.846Z,19.20
2022-10-19T16:23:59.109Z,7.35
2022-10-19T16:26:26.836Z,5.43
2022-10-19T16:28:55.558Z,10.57
2022-10-19T16:31:24.286Z,8.50
2022-10-19T16:33:57.851Z,9.50
2022-10-19T16:36:25.495Z,13.95
2022-10-19T16:38:52.901Z,8.20
2022-10-19T16:41:23.091Z,14.05
2022-10-19T16:44:00.458Z,6.78
2022-10-19T16:46:35.697Z,6.88
2022-10-19T16:49:11.618Z,8.07
2022-10-19T16:51:42.006Z,9.32
2022-10-19T16:54:12.794Z,9.52
2022-10-19T16:56:49.048Z,11.88
2022-10-19T16:59:18.367Z,8.32
2022-10-19T17:01:46.604Z,7.82
2022-10-19T17:04:15.680Z,7.55
2022-10-19T17:06:42.468Z,7.50
2022-10-19T17:11:57.478Z,9.07
2022-10-19T17:14:26.105Z,9.20
2022-10-19T17:16:53.643Z,6.95
2022-10-19T17:19:21.390Z,10.23
2022-10-19T17:21:49.520Z,14.70
2022-10-19T17:24:22.140Z,9.27
2022-10-19T17:26:51.170Z,10.23
2022-10-19T17:29:19.162Z,8.43
2022-10-19T17:31:46.998Z,10.90
2022-10-19T17:34:14.724Z,10.68
2022-10-19T17:36:47.062Z,10.85
2022-10-19T17:39:35.586Z,9.20
2022-10-19T17:42:04.638Z,12.57
2022-10-19T17:44:39.952Z,11.47
2022-10-19T17:47:08.960Z,11.02
2022-10-19T17:49:38.496Z,8.00
2022-10-19T17:52:06.406Z,6.68
2022-10-19T17:54:43.527Z,13.32
2022-10-19T17:57:23.145Z,11.40
2022-10-19T17:59:52.853Z,10.23
2022-10-19T18:02:22.747Z,10.35
2022-10-19T18:04:51.567Z,11.05
2022-10-19T18:07:20.901Z,9.88
2022-10-19T18:09:48.871Z,15.80
2022-10-19T18:12:16.523Z,10.88
2022-10-19T18:14:45.280Z,9.90
2022-10-19T18:17:12.875Z,13.57
2022-10-19T18:19:40.742Z,10.50
2022-10-19T18:22:08.342Z,14.63
2022-10-19T18:24:35.654Z,10.52
2022-10-19T18:27:03.491Z,8.65
2022-10-19T18:29:30.814Z,16.63
2022-10-19T18:31:58.587Z,8.23
2022-10-19T18:34:27.620Z,10.13
2022-10-19T18:36:56.549Z,9.90
2022-10-19T18:39:24.451Z,10.77
2022-10-19T18:41:55.139Z,9.25
2022-10-19T18:44:27.209Z,9.18
2022-10-19T18:46:57.568Z,10.10
2022-10-19T18:49:25.840Z,6.43
2022-10-19T18:51:55.514Z,7.15
2022-10-19T18:54:26.678Z,10.57
2022-10-19T18:56:54.980Z,10.88
2022-10-19T18:59:22.225Z,12.23
2022-10-19T19:01:54.649Z,9.05
2022-10-19T19:04:22.440Z,5.63
2022-10-19T19:06:49.892Z,6.25
2022-10-19T19:09:19.056Z,8.48
2022-10-19T19:11:47.762Z,7.20
2022-10-19T19:14:18.433Z,7.97
2022-10-19T19:16:46.016Z,9.80
2022-10-19T19:19:16.000Z,12.65
2022-10-19T19:21:45.011Z,5.90
2022-10-19T19:24:19.015Z,17.83
2022-10-19T19:26:53.013Z,4.47
2022-10-19T19:29:22.392Z,8.32
2022-10-19T19:31:50.025Z,5.38
2022-10-19T19:34:18.367Z,6.60
2022-10-19T19:36:49.199Z,11.30
2022-10-19T19:39:19.646Z,9.57
2022-10-19T19:41:48.027Z,11.93
2022-10-19T19:44:15.635Z,11.43
2022-10-19T19:46:43.507Z,7.47
2022-10-19T19:49:11.024Z,8.13
2022-10-19T19:51:38.796Z,5.97
2022-10-19T19:54:07.518Z,8.60
2022-10-19T19:56:35.346Z,7.78
2022-10-19T19:59:05.567Z,8.00
2022-10-19T20:01:33.247Z,7.38
2022-10-19T20:06:37.322Z,6.07
2022-10-19T20:09:08.812Z,6.47
2022-10-19T20:11:39.679Z,7.13
2022-10-19T20:14:10.290Z,6.70
2022-10-19T20:16:37.740Z,6.95
2022-10-19T20:19:14.473Z,5.75
2022-10-19T20:21:45.064Z,5.30
2022-10-19T20:24:12.852Z,4.75
2022-10-19T20:26:40.420Z,8.68
2022-10-19T20:29:07.905Z,8.35
2022-10-19T20:31:40.076Z,6.22
2022-10-19T20:34:10.376Z,6.43
2022-10-19T20:36:38.097Z,7.25
2022-10-19T20:39:05.441Z,3.90
2022-10-19T20:41:32.777Z,7.68
2022-10-19T20:44:00.055Z,5.85
2022-10-19T20:46:29.701Z,6.20
2022-10-19T20:48:59.714Z,8.20
2022-10-19T20:54:00.488Z,6.90
2022-10-19T20:56:30.156Z,10.30
2022-10-19T21:01:36.709Z,5.10
2022-10-19T21:04:06.032Z,4.40
2022-10-19T21:06:34.809Z,8.90
2022-10-19T21:09:02.015Z,9.25
2022-10-19T21:11:32.523Z,5.75
2022-10-19T21:14:07.942Z,8.95
2022-10-19T21:16:35.452Z,5.18
2022-10-19T21:19:04.665Z,5.50
2022-10-19T21:21:34.604Z,4.05
2022-10-19T21:26:33.552Z,6.30
2022-10-19T21:29:00.791Z,8.88
2022-10-19T21:31:27.665Z,4.97
2022-10-19T21:33:54.976Z,6.60
2022-10-19T21:36:25.119Z,7.32
2022-10-19T21:38:52.059Z,8.15
2022-10-19T21:41:25.319Z,8.38
2022-10-19T21:43:53.998Z,10.13
2022-10-19T21:46:22.350Z,9.85
2022-10-19T21:48:49.859Z,6.13
2022-10-19T21:51:22.731Z,5.45
2022-10-19T21:53:49.845Z,14.95
2022-10-19T21:56:17.275Z,5.55
2022-10-19T21:58:48.742Z,5.63
2022-10-19T22:01:16.529Z,5.75
2022-10-19T22:03:43.512Z,6.22
2022-10-19T22:06:10.951Z,8.23
2022-10-19T22:08:38.454Z,9.73
2022-10-19T22:11:09.657Z,9.57
2022-10-19T22:13:37.323Z,3.95
2022-10-19T22:16:06.556Z,5.40
2022-10-19T22:18:33.705Z,7.13
2022-10-19T22:21:05.558Z,8.95
2022-10-19T22:23:32.312Z,9.32
2022-10-19T22:25:59.946Z,4.97
2022-10-19T22:28:27.276Z,10.23
2022-10-19T22:30:55.880Z,6.13
2022-10-19T22:33:23.505Z,5.57
2022-10-19T22:35:55.612Z,11.32
2022-10-19T22:38:22.836Z,7.88
2022-10-19T22:40:49.541Z,6.43
2022-10-19T22:43:16.343Z,6.05
2022-10-19T22:45:43.092Z,5.40
2022-10-19T22:48:09.804Z,5.20
2022-10-19T22:50:36.532Z,7.65
2022-10-19T22:53:03.291Z,12.02
2022-10-19T22:55:30.086Z,4.65
2022-10-19T22:57:57.150Z,9.60
2022-10-19T23:03:31.222Z,6.68
2022-10-19T23:05:58.181Z,9.55
2022-10-19T23:08:25.300Z,9.35
2022-10-19T23:10:52.362Z,5.30
2022-10-19T23:13:19.218Z,5.60
2022-10-19T23:15:46.140Z,6.25
2022-10-19T23:18:13.545Z,7.40
2022-10-19T23:20:40.316Z,5.43
2022-10-19T23:23:07.643Z,5.38
2022-10-19T23:25:34.415Z,5.40
2022-10-19T23:28:01.611Z,6.32
2022-10-19T23:30:28.412Z,6.57
2022-10-19T23:32:55.158Z,6.03
2022-10-19T23:35:21.924Z,5.40
2022-10-19T23:37:48.726Z,5.85
2022-10-19T23:40:15.538Z,10.05
2022-10-19T23:42:42.329Z,6.07
2022-10-19T23:45:09.467Z,6.32
2022-10-19T23:47:37.586Z,7.30
2022-10-19T23:50:04.859Z,6.55
2022-10-19T23:52:31.626Z,6.22
2022-10-19T23:54:58.382Z,5.60
2022-10-19T23:57:25.163Z,8.25
2022-10-19T23:59:51.865Z,8.82
